createdAt,value
2018-11-04T00:01:21.198Z,18.80
2018-11-04T00:03:48.817Z,18.30
2018-11-04T00:06:16.503Z,19.30
2018-11-04T00:08:44.227Z,19.90
2018-11-04T00:11:12.077Z,20.83
2018-11-04T00:13:39.707Z,20.13
2018-11-04T00:16:09.186Z,19.97
2018-11-04T00:18:38.498Z,18.47
2018-11-04T00:21:06.429Z,19.33
2018-11-04T00:23:34.093Z,19.53
2018-11-04T00:26:01.806Z,20.83
2018-11-04T00:28:29.477Z,19.03
2018-11-04T00:30:57.122Z,18.93
2018-11-04T00:33:24.757Z,19.90
2018-11-04T00:35:52.470Z,19.30
2018-11-04T00:38:20.117Z,20.60
2018-11-04T00:40:47.882Z,20.50
2018-11-04T00:43:15.574Z,21.17
2018-11-04T00:45:43.250Z,21.30
2018-11-04T00:48:10.927Z,20.67
2018-11-04T00:50:38.630Z,19.93
2018-11-04T00:53:06.796Z,18.60
2018-11-04T00:55:34.801Z,20.90
2018-11-04T00:58:02.473Z,20.80
2018-11-04T01:00:30.169Z,19.60
2018-11-04T01:02:58.397Z,20.00
2018-11-04T01:05:26.082Z,21.70
2018-11-04T01:07:53.724Z,19.47
2018-11-04T01:10:21.399Z,19.53
2018-11-04T01:12:49.105Z,19.13
2018-11-04T01:15:16.742Z,17.93
2018-11-04T01:17:44.495Z,19.47
2018-11-04T01:20:14.506Z,18.20
2018-11-04T01:22:42.593Z,19.10
2018-11-04T01:25:10.337Z,18.17
2018-11-04T01:27:38.068Z,18.10
2018-11-04T01:30:08.011Z,19.70
2018-11-04T01:32:35.835Z,19.20
2018-11-04T01:35:03.906Z,18.70
2018-11-04T01:37:31.586Z,20.47
2018-11-04T01:39:59.249Z,18.10
2018-11-04T01:42:26.934Z,19.23
2018-11-04T01:44:54.590Z,21.00
2018-11-04T01:47:22.274Z,19.20
2018-11-04T01:49:49.916Z,22.27
2018-11-04T01:52:17.626Z,18.30
2018-11-04T01:54:45.293Z,20.17
2018-11-04T01:57:12.982Z,20.70
2018-11-04T01:59:40.669Z,22.70
2018-11-04T02:02:08.321Z,20.83
2018-11-04T02:04:35.977Z,19.10
2018-11-04T02:07:03.640Z,20.67
2018-11-04T02:09:31.255Z,20.47
2018-11-04T02:11:58.957Z,21.00
2018-11-04T02:14:26.605Z,21.60
2018-11-04T02:16:54.300Z,20.33
2018-11-04T02:19:21.929Z,20.70
2018-11-04T02:21:49.613Z,20.00
2018-11-04T02:24:17.299Z,20.50
2018-11-04T02:26:45.097Z,20.57
2018-11-04T02:29:12.791Z,21.20
2018-11-04T02:31:40.540Z,22.23
2018-11-04T02:34:08.216Z,24.80
2018-11-04T02:36:35.857Z,23.97
2018-11-04T02:39:04.808Z,23.20
2018-11-04T02:41:32.457Z,23.20
2018-11-04T02:44:00.066Z,25.90
2018-11-04T02:46:27.722Z,23.87
2018-11-04T02:48:55.360Z,21.97
2018-11-04T02:51:23.081Z,25.30
2018-11-04T02:53:50.769Z,23.30
2018-11-04T02:56:18.453Z,25.63
2018-11-04T02:58:46.069Z,24.63
2018-11-04T03:01:13.731Z,23.93
2018-11-04T03:03:41.379Z,22.17
2018-11-04T03:06:09.010Z,22.50
2018-11-04T03:08:36.657Z,25.17
2018-11-04T03:11:04.421Z,22.20
2018-11-04T03:13:32.108Z,23.17
2018-11-04T03:15:59.942Z,24.20
2018-11-04T03:18:27.781Z,22.30
2018-11-04T03:20:55.496Z,23.23
2018-11-04T03:23:23.184Z,23.20
2018-11-04T03:25:50.873Z,23.97
2018-11-04T03:28:18.594Z,24.87
2018-11-04T03:30:46.197Z,24.20
2018-11-04T03:33:13.867Z,25.43
2018-11-04T03:35:41.492Z,24.07
2018-11-04T03:38:09.180Z,24.90
2018-11-04T03:40:36.845Z,23.70
2018-11-04T03:43:04.750Z,23.27
2018-11-04T03:45:32.410Z,23.80
2018-11-04T03:48:00.066Z,23.70
2018-11-04T03:50:27.749Z,23.30
2018-11-04T03:52:59.962Z,24.33
2018-11-04T03:55:27.589Z,22.53
2018-11-04T03:57:55.256Z,25.80
2018-11-04T04:00:22.919Z,24.20
2018-11-04T04:02:50.606Z,24.27
2018-11-04T04:05:18.330Z,24.17
2018-11-04T04:07:46.028Z,22.47
2018-11-04T04:10:13.781Z,23.40
2018-11-04T04:12:41.527Z,22.30
2018-11-04T04:15:10.341Z,23.20
2018-11-04T04:17:38.373Z,22.73
2018-11-04T04:20:06.278Z,21.60
2018-11-04T04:22:34.013Z,22.37
2018-11-04T04:25:01.663Z,22.77
2018-11-04T04:27:29.370Z,22.27
2018-11-04T04:29:57.272Z,21.80
2018-11-04T04:32:24.946Z,23.53
2018-11-04T04:34:52.598Z,21.77
2018-11-04T04:37:20.269Z,22.13
2018-11-04T04:39:47.938Z,21.70
2018-11-04T04:42:15.601Z,21.80
2018-11-04T04:44:43.256Z,23.37
2018-11-04T04:47:10.974Z,21.63
2018-11-04T04:49:38.600Z,23.23
2018-11-04T04:52:06.334Z,23.47
2018-11-04T04:54:33.985Z,24.87
2018-11-04T04:57:01.656Z,23.37
2018-11-04T04:59:29.356Z,21.13
2018-11-04T05:01:57.113Z,22.37
2018-11-04T05:04:24.902Z,24.30
2018-11-04T05:06:52.822Z,24.67
2018-11-04T05:09:20.514Z,25.07
2018-11-04T05:11:48.158Z,22.80
2018-11-04T05:14:15.814Z,24.90
2018-11-04T05:16:43.489Z,25.23
2018-11-04T05:19:11.133Z,23.93
2018-11-04T05:21:38.780Z,23.60
2018-11-04T05:24:06.444Z,23.47
2018-11-04T05:26:34.106Z,24.20
2018-11-04T05:29:01.759Z,23.10
2018-11-04T05:31:29.424Z,24.50
2018-11-04T05:33:57.089Z,22.47
2018-11-04T05:36:24.726Z,24.30
2018-11-04T05:38:52.387Z,22.27
2018-11-04T05:41:20.013Z,22.50
2018-11-04T05:43:47.728Z,22.87
2018-11-04T05:46:15.401Z,24.30
2018-11-04T05:48:43.092Z,23.40
2018-11-04T05:51:10.953Z,24.63
2018-11-04T05:53:39.648Z,22.97
2018-11-04T05:56:07.714Z,20.90
2018-11-04T05:58:35.419Z,22.17
2018-11-04T06:01:03.308Z,22.23
2018-11-04T06:03:31.085Z,22.03
2018-11-04T06:05:58.774Z,23.70
2018-11-04T06:08:26.480Z,23.13
2018-11-04T06:10:54.186Z,20.73
2018-11-04T06:13:21.894Z,22.00
2018-11-04T06:15:49.701Z,22.97
2018-11-04T06:18:17.633Z,22.90
2018-11-04T06:20:45.332Z,21.83
2018-11-04T06:23:13.038Z,24.33
2018-11-04T06:25:40.633Z,20.20
2018-11-04T06:28:08.329Z,22.60
2018-11-04T06:30:35.971Z,22.57
2018-11-04T06:33:03.629Z,21.80
2018-11-04T06:35:31.305Z,20.33
2018-11-04T06:37:58.966Z,21.53
2018-11-04T06:40:26.628Z,19.90
2018-11-04T06:42:54.329Z,21.50
2018-11-04T06:45:22.044Z,18.20
2018-11-04T06:47:49.740Z,18.67
2018-11-04T06:50:17.377Z,20.67
2018-11-04T06:52:45.105Z,21.97
2018-11-04T06:55:12.962Z,22.43
2018-11-04T06:57:41.741Z,21.87
2018-11-04T07:00:15.137Z,21.43
2018-11-04T07:02:46.393Z,20.90
2018-11-04T07:05:36.014Z,19.60
2018-11-04T07:08:04.158Z,19.60
2018-11-04T07:10:31.874Z,22.17
2018-11-04T07:12:59.715Z,21.37
2018-11-04T07:15:27.469Z,20.67
2018-11-04T07:17:55.168Z,21.77
2018-11-04T07:20:23.179Z,21.00
2018-11-04T07:22:51.353Z,19.33
2018-11-04T07:25:19.053Z,20.50
2018-11-04T07:27:47.810Z,19.40
2018-11-04T07:30:15.626Z,18.97
2018-11-04T07:32:44.336Z,19.13
2018-11-04T07:35:13.076Z,21.00
2018-11-04T07:37:41.311Z,19.37
2018-11-04T07:40:09.828Z,18.20
2018-11-04T07:42:38.638Z,20.13
2018-11-04T07:45:07.163Z,17.30
2018-11-04T07:47:35.559Z,17.77
2018-11-04T07:50:03.590Z,18.83
2018-11-04T07:52:31.722Z,18.33
2018-11-04T07:55:00.563Z,16.57
2018-11-04T07:57:34.644Z,17.23
2018-11-04T08:00:12.168Z,14.57
2018-11-04T08:02:42.860Z,15.87
2018-11-04T08:05:11.589Z,17.47
2018-11-04T08:07:41.025Z,17.77
2018-11-04T08:10:11.917Z,17.00
2018-11-04T08:12:46.442Z,18.13
2018-11-04T08:15:14.158Z,16.97
2018-11-04T08:17:42.741Z,15.47
2018-11-04T08:20:33.630Z,17.57
2018-11-04T08:23:02.267Z,16.00
2018-11-04T08:25:30.805Z,17.50
2018-11-04T08:27:58.969Z,16.87
2018-11-04T08:30:27.638Z,20.27
2018-11-04T08:32:56.028Z,16.20
2018-11-04T08:35:25.367Z,17.77
2018-11-04T08:38:00.811Z,15.33
2018-11-04T08:40:29.296Z,15.70
2018-11-04T08:42:57.442Z,13.63
2018-11-04T08:45:25.779Z,16.53
2018-11-04T08:47:53.725Z,16.27
2018-11-04T08:50:22.923Z,18.30
2018-11-04T08:52:51.717Z,17.53
2018-11-04T08:55:19.832Z,15.77
2018-11-04T08:57:48.251Z,16.00
2018-11-04T09:00:17.599Z,16.43
2018-11-04T09:02:46.101Z,14.03
2018-11-04T09:05:14.352Z,16.30
2018-11-04T09:07:42.621Z,14.57
2018-11-04T09:10:13.878Z,15.93
2018-11-04T09:12:44.392Z,14.80
2018-11-04T09:15:12.743Z,13.93
2018-11-04T09:17:41.113Z,13.03
2018-11-04T09:20:13.149Z,15.10
2018-11-04T09:22:42.561Z,14.70
2018-11-04T09:25:11.831Z,14.00
2018-11-04T09:27:41.071Z,14.00
2018-11-04T09:30:12.299Z,13.70
2018-11-04T09:32:42.578Z,12.93
2018-11-04T09:35:11.632Z,13.07
2018-11-04T09:37:40.342Z,14.63
2018-11-04T09:40:11.151Z,13.90
2018-11-04T09:42:39.586Z,14.10
2018-11-04T09:45:08.271Z,12.57
2018-11-04T09:47:37.206Z,12.50
2018-11-04T09:50:06.585Z,12.90
2018-11-04T09:52:43.301Z,12.87
2018-11-04T09:55:19.417Z,12.57
2018-11-04T09:57:49.651Z,12.40
2018-11-04T10:00:18.052Z,13.27
2018-11-04T10:02:46.418Z,13.63
2018-11-04T10:05:15.026Z,12.93
2018-11-04T10:07:43.288Z,12.47
2018-11-04T10:10:12.986Z,12.50
2018-11-04T10:12:43.203Z,12.23
2018-11-04T10:15:11.407Z,12.10
2018-11-04T10:17:46.819Z,13.60
2018-11-04T10:20:15.304Z,12.80
2018-11-04T10:22:42.792Z,12.10
2018-11-04T10:25:11.835Z,13.83
2018-11-04T10:27:40.391Z,15.20
2018-11-04T10:30:10.822Z,16.60
2018-11-04T10:32:38.609Z,14.10
2018-11-04T10:35:06.882Z,14.40
2018-11-04T10:37:34.926Z,12.87
2018-11-04T10:40:03.006Z,13.00
2018-11-04T10:42:30.730Z,15.20
2018-11-04T10:44:58.483Z,13.57
2018-11-04T10:47:26.319Z,13.23
2018-11-04T10:49:54.327Z,13.97
2018-11-04T10:52:22.457Z,13.93
2018-11-04T10:54:50.904Z,12.70
2018-11-04T10:57:19.047Z,15.03
2018-11-04T10:59:48.158Z,12.33
2018-11-04T11:02:16.573Z,13.03
2018-11-04T11:04:44.717Z,11.60
2018-11-04T11:07:13.466Z,12.23
2018-11-04T11:09:41.679Z,14.13
2018-11-04T11:12:09.881Z,12.50
2018-11-04T11:14:37.818Z,12.90
2018-11-04T11:17:06.028Z,13.47
2018-11-04T11:19:34.992Z,14.63
2018-11-04T11:22:03.144Z,13.90
2018-11-04T11:24:32.928Z,15.67
2018-11-04T11:27:01.155Z,13.43
2018-11-04T11:29:29.029Z,13.43
2018-11-04T11:31:57.087Z,18.97
2018-11-04T11:34:25.023Z,14.00
2018-11-04T11:36:53.177Z,14.17
2018-11-04T11:39:20.913Z,14.43
2018-11-04T11:41:48.786Z,15.87
2018-11-04T11:44:16.719Z,18.13
2018-11-04T11:46:44.993Z,15.80
2018-11-04T11:49:12.867Z,14.87
2018-11-04T11:51:40.719Z,15.60
2018-11-04T11:54:08.571Z,17.70
2018-11-04T11:56:36.439Z,18.33
2018-11-04T11:59:04.323Z,18.40
2018-11-04T12:01:32.463Z,17.50
2018-11-04T12:04:00.408Z,20.13
2018-11-04T12:06:28.064Z,22.33
2018-11-04T12:08:55.821Z,16.50
2018-11-04T12:11:23.574Z,19.23
2018-11-04T12:13:51.236Z,18.93
2018-11-04T12:16:18.975Z,16.90
2018-11-04T12:18:46.829Z,16.17
2018-11-04T12:21:14.491Z,15.80
2018-11-04T12:23:42.290Z,15.67
2018-11-04T12:26:10.064Z,16.93
2018-11-04T12:28:37.882Z,15.60
2018-11-04T12:31:05.760Z,16.90
2018-11-04T12:33:33.475Z,15.77
2018-11-04T12:36:01.273Z,16.27
2018-11-04T12:38:29.811Z,16.23
2018-11-04T12:40:57.731Z,16.30
2018-11-04T12:43:35.762Z,17.10
2018-11-04T12:46:03.597Z,16.70
2018-11-04T12:48:31.405Z,15.33
2018-11-04T12:50:59.150Z,17.17
2018-11-04T12:53:27.347Z,18.27
2018-11-04T12:56:06.354Z,17.33
2018-11-04T12:58:34.200Z,16.70
2018-11-04T13:01:01.917Z,16.80
2018-11-04T13:03:29.734Z,15.10
2018-11-04T13:05:57.429Z,15.63
2018-11-04T13:08:25.333Z,15.83
2018-11-04T13:10:52.977Z,17.27
2018-11-04T13:13:20.637Z,15.63
2018-11-04T13:15:48.279Z,14.83
2018-11-04T13:18:15.958Z,14.93
2018-11-04T13:20:43.618Z,16.30
2018-11-04T13:23:11.308Z,17.20
2018-11-04T13:25:38.908Z,15.50
2018-11-04T13:28:06.600Z,16.03
2018-11-04T13:30:34.635Z,16.10
2018-11-04T13:33:02.423Z,15.73
2018-11-04T13:35:30.386Z,18.13
2018-11-04T13:37:59.451Z,17.73
2018-11-04T13:40:27.427Z,15.03
2018-11-04T13:42:56.032Z,15.27
2018-11-04T13:45:33.746Z,15.47
2018-11-04T13:48:02.081Z,17.53
2018-11-04T13:50:29.885Z,16.07
2018-11-04T13:52:58.144Z,14.67
2018-11-04T13:55:26.022Z,13.73
2018-11-04T13:57:54.112Z,12.93
2018-11-04T14:00:22.180Z,15.10
2018-11-04T14:02:49.950Z,14.07
2018-11-04T14:05:17.913Z,17.03
2018-11-04T14:07:50.618Z,16.07
2018-11-04T14:10:19.669Z,15.73
2018-11-04T14:12:47.706Z,13.90
2018-11-04T14:15:21.169Z,15.37
2018-11-04T14:17:49.706Z,14.50
2018-11-04T14:20:18.222Z,13.43
2018-11-04T14:22:46.283Z,14.10
2018-11-04T14:25:14.354Z,13.97
2018-11-04T14:27:42.237Z,12.37
2018-11-04T14:30:15.310Z,14.17
2018-11-04T14:32:43.470Z,14.47
2018-11-04T14:35:24.529Z,14.10
2018-11-04T14:37:52.258Z,14.43
2018-11-04T14:40:20.150Z,14.00
2018-11-04T14:42:58.416Z,14.77
2018-11-04T14:45:26.335Z,15.70
2018-11-04T14:47:54.389Z,14.77
2018-11-04T14:50:22.405Z,14.90
2018-11-04T14:52:50.964Z,15.00
2018-11-04T14:55:19.239Z,14.93
2018-11-04T14:57:49.658Z,14.47
2018-11-04T15:00:33.115Z,15.07
2018-11-04T15:03:01.757Z,13.10
2018-11-04T15:05:29.994Z,12.60
2018-11-04T15:07:58.165Z,14.77
2018-11-04T15:10:26.317Z,13.03
2018-11-04T15:12:54.557Z,15.20
2018-11-04T15:15:22.748Z,10.13
2018-11-04T15:17:50.891Z,12.80
2018-11-04T15:20:19.860Z,13.20
2018-11-04T15:22:49.239Z,12.00
2018-11-04T15:25:18.277Z,13.27
2018-11-04T15:27:46.212Z,12.27
2018-11-04T15:30:14.283Z,12.57
2018-11-04T15:32:42.640Z,13.80
2018-11-04T15:35:11.201Z,11.77
2018-11-04T15:37:42.989Z,12.80
2018-11-04T15:40:12.478Z,12.50
2018-11-04T15:42:41.132Z,14.90
2018-11-04T15:45:10.719Z,13.67
2018-11-04T15:47:40.334Z,13.33
2018-11-04T15:50:12.473Z,12.43
2018-11-04T15:52:40.988Z,11.40
2018-11-04T15:55:08.985Z,16.40
2018-11-04T15:57:38.970Z,15.00
2018-11-04T16:00:09.966Z,14.37
2018-11-04T16:02:38.153Z,15.73
2018-11-04T16:05:06.843Z,12.13
2018-11-04T16:07:34.533Z,13.47
2018-11-04T16:10:02.289Z,13.77
2018-11-04T16:12:32.181Z,15.70
2018-11-04T16:14:59.816Z,15.10
2018-11-04T16:17:27.538Z,17.93
2018-11-04T16:19:55.496Z,17.30
2018-11-04T16:22:23.940Z,17.10
2018-11-04T16:24:51.895Z,16.30
2018-11-04T16:27:20.216Z,14.70
2018-11-04T16:29:48.449Z,16.90
2018-11-04T16:32:17.028Z,15.70
2018-11-04T16:34:46.650Z,16.47
2018-11-04T16:37:15.093Z,16.77
2018-11-04T16:39:43.073Z,14.70
2018-11-04T16:42:11.214Z,15.10
2018-11-04T16:44:39.529Z,16.60
2018-11-04T16:47:07.466Z,15.87
2018-11-04T16:49:35.861Z,16.33
2018-11-04T16:52:04.097Z,15.93
2018-11-04T16:54:32.352Z,17.87
2018-11-04T16:57:01.009Z,20.03
2018-11-04T16:59:28.800Z,18.50
2018-11-04T17:01:56.481Z,19.20
2018-11-04T17:04:24.429Z,18.30
2018-11-04T17:06:52.157Z,18.70
2018-11-04T17:09:20.018Z,16.57
2018-11-04T17:11:47.982Z,17.93
2018-11-04T17:14:15.830Z,19.03
2018-11-04T17:16:43.848Z,19.77
2018-11-04T17:19:11.890Z,20.17
2018-11-04T17:21:39.938Z,18.70
2018-11-04T17:24:08.166Z,20.43
2018-11-04T17:26:35.882Z,15.80
2018-11-04T17:29:03.674Z,16.90
2018-11-04T17:31:31.461Z,17.23
2018-11-04T17:33:59.456Z,16.60
2018-11-04T17:36:27.458Z,15.47
2018-11-04T17:38:55.279Z,16.53
2018-11-04T17:41:23.378Z,16.63
2018-11-04T17:43:51.398Z,16.97
2018-11-04T17:46:19.313Z,16.20
2018-11-04T17:48:47.441Z,14.67
2018-11-04T17:51:15.314Z,15.70
2018-11-04T17:53:43.972Z,15.30
2018-11-04T17:56:11.748Z,17.30
2018-11-04T17:58:40.274Z,18.53
2018-11-04T18:01:09.875Z,15.70
2018-11-04T18:03:38.456Z,16.17
2018-11-04T18:06:06.219Z,18.27
2018-11-04T18:08:34.424Z,16.87
2018-11-04T18:11:02.559Z,17.30
2018-11-04T18:13:30.709Z,16.50
2018-11-04T18:15:58.595Z,16.20
2018-11-04T18:18:26.448Z,16.67
2018-11-04T18:20:54.306Z,16.30
2018-11-04T18:23:22.093Z,15.33
2018-11-04T18:25:50.070Z,15.90
2018-11-04T18:28:17.999Z,15.60
2018-11-04T18:30:45.689Z,13.80
2018-11-04T18:33:13.579Z,15.00
2018-11-04T18:35:41.235Z,15.60
2018-11-04T18:38:08.869Z,17.93
2018-11-04T18:40:36.558Z,15.93
2018-11-04T18:43:04.252Z,17.70
2018-11-04T18:45:31.954Z,15.83
2018-11-04T18:47:59.918Z,16.17
2018-11-04T18:50:27.813Z,17.80
2018-11-04T18:52:56.536Z,16.53
2018-11-04T18:55:24.341Z,16.70
2018-11-04T18:58:08.024Z,15.83
2018-11-04T19:00:36.740Z,15.90
2018-11-04T19:03:10.465Z,15.10
2018-11-04T19:05:38.520Z,15.33
2018-11-04T19:08:11.349Z,15.07
2018-11-04T19:10:39.625Z,15.63
2018-11-04T19:13:08.182Z,15.27
2018-11-04T19:15:39.467Z,16.37
2018-11-04T19:18:16.441Z,16.57
2018-11-04T19:20:44.926Z,15.43
2018-11-04T19:23:16.391Z,17.47
2018-11-04T19:25:45.050Z,16.57
2018-11-04T19:28:13.325Z,16.50
2018-11-04T19:30:41.580Z,16.43
2018-11-04T19:33:19.583Z,17.63
2018-11-04T19:35:48.082Z,15.97
2018-11-04T19:38:16.361Z,15.87
2018-11-04T19:40:44.201Z,16.93
2018-11-04T19:43:12.642Z,17.57
2018-11-04T19:45:42.343Z,16.83
2018-11-04T19:48:11.036Z,17.47
2018-11-04T19:50:39.297Z,19.90
2018-11-04T19:53:07.058Z,18.40
2018-11-04T19:55:35.042Z,18.37
2018-11-04T19:58:02.774Z,18.50
2018-11-04T20:00:30.692Z,28.90
2018-11-04T20:02:58.705Z,22.53
2018-11-04T20:05:26.706Z,21.40
2018-11-04T20:07:54.634Z,20.17
2018-11-04T20:10:22.617Z,20.53
2018-11-04T20:12:55.881Z,19.60
2018-11-04T20:15:23.770Z,20.70
2018-11-04T20:17:51.937Z,19.90
2018-11-04T20:20:22.621Z,19.20
2018-11-04T20:22:50.693Z,20.17
2018-11-04T20:25:24.130Z,19.30
2018-11-04T20:27:51.825Z,20.60
2018-11-04T20:30:19.497Z,17.87
2018-11-04T20:32:52.889Z,23.43
2018-11-04T20:35:20.693Z,21.93
2018-11-04T20:37:48.943Z,20.27
2018-11-04T20:40:22.809Z,31.80
2018-11-04T20:42:50.593Z,23.87
2018-11-04T20:45:18.391Z,21.27
2018-11-04T20:47:57.658Z,21.90
2018-11-04T20:50:31.943Z,22.87
2018-11-04T20:53:00.204Z,23.17
2018-11-04T20:55:34.312Z,21.43
2018-11-04T20:58:04.548Z,22.67
2018-11-04T21:00:32.600Z,23.70
2018-11-04T21:03:01.811Z,22.73
2018-11-04T21:05:32.166Z,24.30
2018-11-04T21:08:00.021Z,22.10
2018-11-04T21:10:28.335Z,21.53
2018-11-04T21:12:56.265Z,23.33
2018-11-04T21:15:24.057Z,21.67
2018-11-04T21:17:52.084Z,23.90
2018-11-04T21:20:22.367Z,23.10
2018-11-04T21:22:50.503Z,20.90
2018-11-04T21:25:18.585Z,20.90
2018-11-04T21:27:49.444Z,20.63
2018-11-04T21:30:21.532Z,18.37
2018-11-04T21:32:56.976Z,20.17
2018-11-04T21:35:26.046Z,18.77
2018-11-04T21:37:54.119Z,19.67
2018-11-04T21:40:22.072Z,21.47
2018-11-04T21:42:50.020Z,21.53
2018-11-04T21:45:17.906Z,18.00
2018-11-04T21:47:45.939Z,18.70
2018-11-04T21:50:14.419Z,18.67
2018-11-04T21:52:42.388Z,17.30
2018-11-04T21:55:11.625Z,18.37
2018-11-04T21:57:40.908Z,17.80
2018-11-04T22:00:11.420Z,17.33
2018-11-04T22:02:40.158Z,18.30
2018-11-04T22:05:08.434Z,21.87
2018-11-04T22:07:36.635Z,22.63
2018-11-04T22:10:06.315Z,20.20
2018-11-04T22:12:34.589Z,22.00
2018-11-04T22:15:02.753Z,20.57
2018-11-04T22:17:30.979Z,20.20
2018-11-04T22:19:59.000Z,20.30
2018-11-04T22:22:27.125Z,20.40
2018-11-04T22:24:55.517Z,18.60
2018-11-04T22:27:23.706Z,19.00
2018-11-04T22:29:51.666Z,16.70
2018-11-04T22:32:19.680Z,17.60
2018-11-04T22:34:47.511Z,15.87
2018-11-04T22:37:15.541Z,17.27
2018-11-04T22:39:43.891Z,15.73
2018-11-04T22:42:11.842Z,16.33
2018-11-04T22:44:39.754Z,17.73
2018-11-04T22:47:07.748Z,16.13
2018-11-04T22:49:36.224Z,16.63
2018-11-04T22:52:04.966Z,16.60
2018-11-04T22:54:32.806Z,16.87
2018-11-04T22:57:00.760Z,19.63
2018-11-04T22:59:28.471Z,18.73
2018-11-04T23:01:56.620Z,20.53
2018-11-04T23:04:30.178Z,18.40
2018-11-04T23:06:58.052Z,20.17
2018-11-04T23:09:26.164Z,20.37
2018-11-04T23:11:54.516Z,18.17
2018-11-04T23:14:22.397Z,18.93
2018-11-04T23:16:50.071Z,20.37
2018-11-04T23:19:17.794Z,17.63
2018-11-04T23:21:45.526Z,20.73
2018-11-04T23:24:14.068Z,19.90
2018-11-04T23:26:42.358Z,19.73
2018-11-04T23:29:10.626Z,19.17
2018-11-04T23:31:38.487Z,19.90
2018-11-04T23:34:07.502Z,20.00
2018-11-04T23:36:35.553Z,19.13
2018-11-04T23:39:04.458Z,17.87
2018-11-04T23:41:32.402Z,17.90
2018-11-04T23:44:00.446Z,17.03
2018-11-04T23:46:28.452Z,18.60
2018-11-04T23:48:56.620Z,18.30
2018-11-04T23:51:24.415Z,21.80
2018-11-04T23:53:52.606Z,18.03
2018-11-04T23:56:21.020Z,17.30
2018-11-04T23:58:49.393Z,19.40
